Other Surface Observations
Issued by NWS Great Falls, MT

Home | Current Version | Previous Version | Text Only | Print | Product List | Glossary On
Versions: 1 2 3 4 5 6 7 8 9 10 11 12 13 14 15 16 17 18 19 20 21 22 23 24 25 26 27 28 29 30 31 32 33 34 35 36 37 38 39 40 41 42 43 44 45 46 47 48 49 50
000
SXUS55 KTFX 191602
OSOTFX

AREA AWOS OBSERVATIONS
NATIONAL WEATHER SERVICE GREAT FALLS MT
0807 AM MST Sun Nov 19 2017

METAR K7S0 191355Z AUTO 07000KT 40SM M02/M05 A3008 RMK A01 T10221050
METAR K7S1 191455Z AUTO 13000KT 40SM M02/M10 A3005 RMK A01 T10221100
METAR K7S1 191355Z AUTO 12000KT 40SM M03/M11 A3006 RMK A01 T10331105
METAR K97M 191355Z AUTO 21006KT 40SM 01/M10 A2991 RMK A01 T00051100
METAR K9S2 191355Z AUTO 25000KT 40SM M08/M14 A2982 RMK A01 T10771138
METAR KRPX 191355Z AUTO 20017KT 40SM 03/M11 A2982 RMK A01 T00271105
METAR KRPX 191402Z AUTO 20016KT 40SM 02/M10 A2983 RMK A01 T00221100
METAR KRPX 191355Z AUTO 20017KT 40SM 03/M11 A2982 RMK A01 T00271105
METAR KS34 191355Z AUTO 18000KT 10SM M04/M07 A3007 RMK A01 T10441072
METAR KTHM 191355Z AUTO 05004KT 25SM M03/M04 A3010 RMK A01 T10331038



USA.gov is the U.S. government's official web portal to all federal, state and local government web resources and services.